sensor_id;sensor_type;location;lat;lon;timestamp;pressure;altitude;pressure_sealevel;temperature;humidity
44992;BME280;56865;51.618;7.406;2022-07-23T00:02:02;101077.84;;;26.21;100.00
44992;BME280;56865;51.618;7.406;2022-07-23T00:04:36;101056.44;;;26.08;100.00
44992;BME280;56865;51.618;7.406;2022-07-23T00:07:05;101048.81;;;26.01;100.00
44992;BME280;56865;51.618;7.406;2022-07-23T00:09:35;101040.53;;;26.16;100.00
44992;BME280;56865;51.618;7.406;2022-07-23T00:12:05;101033.25;;;25.98;100.00
44992;BME280;56865;51.618;7.406;2022-07-23T00:14:35;101033.94;;;25.74;100.00
44992;BME280;56865;51.618;7.406;2022-07-23T00:17:05;101028.91;;;25.68;100.00
44992;BME280;56865;51.618;7.406;2022-07-23T00:19:38;101032.09;;;25.78;100.00
44992;BME280;56865;51.618;7.406;2022-07-23T00:22:08;101035.00;;;25.69;100.00
44992;BME280;56865;51.618;7.406;2022-07-23T00:24:38;101034.50;;;25.24;100.00
44992;BME280;56865;51.618;7.406;2022-07-23T00:27:07;101037.41;;;25.13;100.00
44992;BME280;56865;51.618;7.406;2022-07-23T00:29:37;101027.25;;;25.03;100.00
44992;BME280;56865;51.618;7.406;2022-07-23T00:32:07;101024.75;;;26.46;100.00
44992;BME280;56865;51.618;7.406;2022-07-23T00:34:40;101027.56;;;26.67;100.00
44992;BME280;56865;51.618;7.406;2022-07-23T00:37:10;101024.53;;;26.52;100.00
44992;BME280;56865;51.618;7.406;2022-07-23T00:39:39;101022.75;;;26.54;100.00
44992;BME280;56865;51.618;7.406;2022-07-23T00:42:09;101034.81;;;26.32;100.00
44992;BME280;56865;51.618;7.406;2022-07-23T00:44:39;101030.22;;;25.83;100.00
44992;BME280;56865;51.618;7.406;2022-07-23T00:47:12;101037.63;;;25.69;100.00
44992;BME280;56865;51.618;7.406;2022-07-23T00:49:45;101047.66;;;25.53;100.00
44992;BME280;56865;51.618;7.406;2022-07-23T00:52:15;101052.75;;;25.56;100.00
44992;BME280;56865;51.618;7.406;2022-07-23T00:54:45;101046.41;;;25.64;100.00
44992;BME280;56865;51.618;7.406;2022-07-23T00:57:15;101033.81;;;25.79;100.00
44992;BME280;56865;51.618;7.406;2022-07-23T00:59:45;101032.94;;;25.80;100.00
44992;BME280;56865;51.618;7.406;2022-07-23T01:02:15;101029.84;;;25.66;100.00
44992;BME280;56865;51.618;7.406;2022-07-23T01:04:47;101024.16;;;25.53;100.00
44992;BME280;56865;51.618;7.406;2022-07-23T01:07:18;101019.03;;;25.78;100.00
44992;BME280;56865;51.618;7.406;2022-07-23T01:09:49;101001.97;;;25.38;100.00
44992;BME280;56865;51.618;7.406;2022-07-23T01:12:20;101006.25;;;25.40;100.00
44992;BME280;56865;51.618;7.406;2022-07-23T01:14:53;101014.25;;;25.64;100.00
44992;BME280;56865;51.618;7.406;2022-07-23T01:17:23;101021.13;;;25.37;100.00
44992;BME280;56865;51.618;7.406;2022-07-23T01:19:56;101032.88;;;25.20;100.00
44992;BME280;56865;51.618;7.406;2022-07-23T01:22:30;101026.41;;;25.34;100.00
44992;BME280;56865;51.618;7.406;2022-07-23T01:24:59;101027.06;;;25.43;100.00
44992;BME280;56865;51.618;7.406;2022-07-23T01:27:30;101007.84;;;25.44;100.00
44992;BME280;56865;51.618;7.406;2022-07-23T01:30:02;101007.38;;;25.30;100.00
44992;BME280;56865;51.618;7.406;2022-07-23T01:32:32;101005.53;;;25.34;100.00
44992;BME280;56865;51.618;7.406;2022-07-23T01:35:04;101015.78;;;25.41;100.00
44992;BME280;56865;51.618;7.406;2022-07-23T01:37:37;101014.53;;;25.23;100.00
44992;BME280;56865;51.618;7.406;2022-07-23T01:40:07;101007.84;;;25.44;100.00
44992;BME280;56865;51.618;7.406;2022-07-23T01:42:37;100999.19;;;25.44;100.00
44992;BME280;56865;51.618;7.406;2022-07-23T01:45:08;101004.88;;;25.57;100.00
44992;BME280;56865;51.618;7.406;2022-07-23T01:47:39;101009.00;;;25.34;100.00
44992;BME280;56865;51.618;7.406;2022-07-23T01:50:09;101000.84;;;25.15;100.00
44992;BME280;56865;51.618;7.406;2022-07-23T01:52:41;100996.47;;;25.15;100.00
44992;BME280;56865;51.618;7.406;2022-07-23T01:55:11;101005.22;;;25.14;100.00
44992;BME280;56865;51.618;7.406;2022-07-23T01:57:45;101005.78;;;25.24;100.00
44992;BME280;56865;51.618;7.406;2022-07-23T02:00:15;101011.19;;;25.18;100.00
44992;BME280;56865;51.618;7.406;2022-07-23T02:02:45;101025.00;;;25.22;100.00
44992;BME280;56865;51.618;7.406;2022-07-23T02:05:15;101020.72;;;25.19;100.00
44992;BME280;56865;51.618;7.406;2022-07-23T02:07:49;101014.50;;;25.25;100.00
44992;BME280;56865;51.618;7.406;2022-07-23T02:10:21;101009.22;;;25.26;100.00
44992;BME280;56865;51.618;7.406;2022-07-23T02:12:52;101006.84;;;25.19;100.00
44992;BME280;56865;51.618;7.406;2022-07-23T02:15:21;101001.72;;;25.14;100.00
44992;BME280;56865;51.618;7.406;2022-07-23T02:17:51;101006.94;;;25.14;100.00
44992;BME280;56865;51.618;7.406;2022-07-23T02:20:21;101005.88;;;25.21;100.00
44992;BME280;56865;51.618;7.406;2022-07-23T02:22:54;101006.09;;;25.13;100.00
44992;BME280;56865;51.618;7.406;2022-07-23T02:25:24;101002.69;;;25.11;100.00
44992;BME280;56865;51.618;7.406;2022-07-23T02:27:54;101000.78;;;25.17;100.00
44992;BME280;56865;51.618;7.406;2022-07-23T02:30:24;100998.19;;;25.17;100.00
44992;BME280;56865;51.618;7.406;2022-07-23T02:32:54;101003.34;;;25.18;100.00
44992;BME280;56865;51.618;7.406;2022-07-23T02:35:24;100997.69;;;25.04;100.00
44992;BME280;56865;51.618;7.406;2022-07-23T02:37:56;101000.00;;;25.14;100.00
44992;BME280;56865;51.618;7.406;2022-07-23T02:40:26;100996.75;;;25.06;100.00
44992;BME280;56865;51.618;7.406;2022-07-23T02:42:56;100995.63;;;25.15;100.00
44992;BME280;56865;51.618;7.406;2022-07-23T02:45:26;100991.34;;;25.12;100.00
44992;BME280;56865;51.618;7.406;2022-07-23T02:47:59;100992.59;;;24.99;100.00
44992;BME280;56865;51.618;7.406;2022-07-23T02:50:29;100999.47;;;25.02;100.00
44992;BME280;56865;51.618;7.406;2022-07-23T02:53:01;101003.06;;;24.97;100.00
44992;BME280;56865;51.618;7.406;2022-07-23T02:55:31;101011.78;;;24.96;100.00
44992;BME280;56865;51.618;7.406;2022-07-23T02:58:01;101005.41;;;25.07;100.00
44992;BME280;56865;51.618;7.406;2022-07-23T03:00:31;101011.72;;;24.99;100.00
44992;BME280;56865;51.618;7.406;2022-07-23T03:03:01;101005.03;;;24.89;100.00
44992;BME280;56865;51.618;7.406;2022-07-23T03:05:31;101006.72;;;24.90;100.00
44992;BME280;56865;51.618;7.406;2022-07-23T03:08:04;100993.28;;;24.74;100.00
44992;BME280;56865;51.618;7.406;2022-07-23T03:10:34;101001.19;;;24.70;100.00
44992;BME280;56865;51.618;7.406;2022-07-23T03:13:03;100994.94;;;24.75;100.00
44992;BME280;56865;51.618;7.406;2022-07-23T03:15:33;101004.38;;;24.81;100.00
44992;BME280;56865;51.618;7.406;2022-07-23T03:18:04;100995.91;;;24.73;100.00
44992;BME280;56865;51.618;7.406;2022-07-23T03:20:33;101002.97;;;24.69;100.00
44992;BME280;56865;51.618;7.406;2022-07-23T03:23:06;101003.72;;;24.73;100.00
44992;BME280;56865;51.618;7.406;2022-07-23T03:25:36;101005.72;;;24.61;100.00
44992;BME280;56865;51.618;7.406;2022-07-23T03:28:06;101002.25;;;24.61;100.00
44992;BME280;56865;51.618;7.406;2022-07-23T03:30:35;101001.59;;;24.53;100.00
44992;BME280;56865;51.618;7.406;2022-07-23T03:33:05;100998.22;;;24.49;100.00
44992;BME280;56865;51.618;7.406;2022-07-23T03:35:35;100993.50;;;24.63;100.00
44992;BME280;56865;51.618;7.406;2022-07-23T03:38:08;100995.00;;;24.74;100.00
44992;BME280;56865;51.618;7.406;2022-07-23T03:40:38;100999.81;;;24.55;100.00
44992;BME280;56865;51.618;7.406;2022-07-23T03:43:08;100985.00;;;24.57;100.00
44992;BME280;56865;51.618;7.406;2022-07-23T03:45:38;101001.31;;;24.65;100.00
44992;BME280;56865;51.618;7.406;2022-07-23T03:48:08;101006.41;;;24.70;100.00
44992;BME280;56865;51.618;7.406;2022-07-23T03:50:38;100998.66;;;24.66;100.00
44992;BME280;56865;51.618;7.406;2022-07-23T03:53:11;100990.78;;;24.33;100.00
44992;BME280;56865;51.618;7.406;2022-07-23T03:55:40;100992.41;;;24.38;100.00
44992;BME280;56865;51.618;7.406;2022-07-23T03:58:10;100989.59;;;24.47;100.00
44992;BME280;56865;51.618;7.406;2022-07-23T04:00:41;100982.22;;;24.28;100.00
44992;BME280;56865;51.618;7.406;2022-07-23T04:03:10;100997.94;;;24.25;100.00
44992;BME280;56865;51.618;7.406;2022-07-23T04:05:41;100992.59;;;24.30;100.00
44992;BME280;56865;51.618;7.406;2022-07-23T04:08:13;101002.78;;;24.41;100.00
44992;BME280;56865;51.618;7.406;2022-07-23T04:10:43;101013.44;;;24.31;100.00
44992;BME280;56865;51.618;7.406;2022-07-23T04:13:13;101009.31;;;24.21;100.00
44992;BME280;56865;51.618;7.406;2022-07-23T04:15:43;101015.34;;;24.23;100.00
44992;BME280;56865;51.618;7.406;2022-07-23T04:18:13;101013.25;;;24.38;100.00
44992;BME280;56865;51.618;7.406;2022-07-23T04:20:44;101017.53;;;24.42;100.00
44992;BME280;56865;51.618;7.406;2022-07-23T04:23:16;101016.94;;;24.30;100.00
44992;BME280;56865;51.618;7.406;2022-07-23T04:25:47;101021.06;;;24.39;100.00
44992;BME280;56865;51.618;7.406;2022-07-23T04:28:17;101010.84;;;24.30;100.00
44992;BME280;56865;51.618;7.406;2022-07-23T04:30:46;101014.13;;;24.38;100.00
44992;BME280;56865;51.618;7.406;2022-07-23T04:33:17;101016.78;;;24.37;100.00
44992;BME280;56865;51.618;7.406;2022-07-23T04:35:47;101012.50;;;24.34;100.00
44992;BME280;56865;51.618;7.406;2022-07-23T04:38:21;101013.13;;;24.06;100.00
44992;BME280;56865;51.618;7.406;2022-07-23T04:40:51;101025.25;;;24.45;100.00
44992;BME280;56865;51.618;7.406;2022-07-23T04:43:21;101019.81;;;24.54;100.00
44992;BME280;56865;51.618;7.406;2022-07-23T04:45:51;101024.31;;;24.47;100.00
44992;BME280;56865;51.618;7.406;2022-07-23T04:48:21;101029.66;;;24.43;100.00
44992;BME280;56865;51.618;7.406;2022-07-23T04:50:51;101033.94;;;24.44;100.00
44992;BME280;56865;51.618;7.406;2022-07-23T04:53:24;101028.34;;;24.61;100.00
44992;BME280;56865;51.618;7.406;2022-07-23T04:55:54;101032.75;;;24.57;100.00
44992;BME280;56865;51.618;7.406;2022-07-23T04:58:24;101037.69;;;24.70;100.00
44992;BME280;56865;51.618;7.406;2022-07-23T05:00:54;101046.03;;;24.48;100.00
44992;BME280;56865;51.618;7.406;2022-07-23T05:03:24;101035.47;;;24.54;100.00
44992;BME280;56865;51.618;7.406;2022-07-23T05:05:54;101040.59;;;24.57;100.00
44992;BME280;56865;51.618;7.406;2022-07-23T05:08:27;101038.81;;;24.58;100.00
44992;BME280;56865;51.618;7.406;2022-07-23T05:10:57;101041.25;;;24.67;100.00
44992;BME280;56865;51.618;7.406;2022-07-23T05:13:27;101043.94;;;24.62;100.00
44992;BME280;56865;51.618;7.406;2022-07-23T05:15:57;101053.97;;;24.79;100.00
44992;BME280;56865;51.618;7.406;2022-07-23T05:18:27;101049.94;;;24.66;100.00
44992;BME280;56865;51.618;7.406;2022-07-23T05:20:57;101052.88;;;24.87;100.00
44992;BME280;56865;51.618;7.406;2022-07-23T05:23:30;101052.56;;;24.99;100.00
44992;BME280;56865;51.618;7.406;2022-07-23T05:26:00;101060.84;;;24.82;100.00
44992;BME280;56865;51.618;7.406;2022-07-23T05:28:30;101059.13;;;25.14;100.00
44992;BME280;56865;51.618;7.406;2022-07-23T05:31:00;101058.91;;;25.23;100.00
44992;BME280;56865;51.618;7.406;2022-07-23T05:33:30;101049.81;;;25.05;100.00
44992;BME280;56865;51.618;7.406;2022-07-23T05:36:01;101048.66;;;25.15;100.00
44992;BME280;56865;51.618;7.406;2022-07-23T05:38:34;101054.22;;;25.35;100.00
44992;BME280;56865;51.618;7.406;2022-07-23T05:41:04;101057.53;;;25.41;100.00
44992;BME280;56865;51.618;7.406;2022-07-23T05:43:34;101055.72;;;25.45;100.00
44992;BME280;56865;51.618;7.406;2022-07-23T05:46:04;101067.59;;;25.55;100.00
44992;BME280;56865;51.618;7.406;2022-07-23T05:48:34;101062.63;;;25.76;100.00
44992;BME280;56865;51.618;7.406;2022-07-23T05:51:05;101069.66;;;25.44;100.00
44992;BME280;56865;51.618;7.406;2022-07-23T05:53:38;101071.03;;;25.86;100.00
44992;BME280;56865;51.618;7.406;2022-07-23T05:56:08;101070.09;;;25.88;100.00
44992;BME280;56865;51.618;7.406;2022-07-23T05:58:38;101069.25;;;26.18;100.00
44992;BME280;56865;51.618;7.406;2022-07-23T06:01:08;101074.69;;;26.38;100.00
44992;BME280;56865;51.618;7.406;2022-07-23T06:03:38;101077.16;;;26.43;100.00
44992;BME280;56865;51.618;7.406;2022-07-23T06:06:08;101071.09;;;26.14;100.00
44992;BME280;56865;51.618;7.406;2022-07-23T06:08:41;101078.81;;;26.17;100.00
44992;BME280;56865;51.618;7.406;2022-07-23T06:11:11;101088.91;;;26.30;100.00
44992;BME280;56865;51.618;7.406;2022-07-23T06:13:41;101078.38;;;26.03;100.00
44992;BME280;56865;51.618;7.406;2022-07-23T06:16:11;101084.19;;;25.53;100.00
44992;BME280;56865;51.618;7.406;2022-07-23T06:18:41;101089.84;;;25.97;100.00
44992;BME280;56865;51.618;7.406;2022-07-23T06:21:11;101085.44;;;25.99;100.00
44992;BME280;56865;51.618;7.406;2022-07-23T06:24:04;101084.13;;;26.42;100.00
44992;BME280;56865;51.618;7.406;2022-07-23T06:26:34;101085.88;;;26.69;100.00
44992;BME280;56865;51.618;7.406;2022-07-23T06:29:03;101102.91;;;26.55;100.00
44992;BME280;56865;51.618;7.406;2022-07-23T06:31:34;101100.16;;;26.87;100.00
44992;BME280;56865;51.618;7.406;2022-07-23T06:34:04;101103.06;;;27.03;100.00
44992;BME280;56865;51.618;7.406;2022-07-23T06:36:34;101102.84;;;26.84;100.00
44992;BME280;56865;51.618;7.406;2022-07-23T06:39:07;101114.03;;;27.14;100.00
44992;BME280;56865;51.618;7.406;2022-07-23T06:41:36;101105.38;;;27.12;100.00
44992;BME280;56865;51.618;7.406;2022-07-23T06:44:06;101107.13;;;27.37;100.00
44992;BME280;56865;51.618;7.406;2022-07-23T06:46:37;101099.53;;;27.29;100.00
44992;BME280;56865;51.618;7.406;2022-07-23T06:49:07;101106.34;;;27.35;100.00
44992;BME280;56865;51.618;7.406;2022-07-23T06:51:37;101102.91;;;27.33;100.00
44992;BME280;56865;51.618;7.406;2022-07-23T06:54:10;101112.34;;;27.37;100.00
44992;BME280;56865;51.618;7.406;2022-07-23T06:56:39;101107.75;;;27.69;100.00
44992;BME280;56865;51.618;7.406;2022-07-23T06:59:10;101114.78;;;27.67;100.00
44992;BME280;56865;51.618;7.406;2022-07-23T07:01:40;101110.06;;;27.77;100.00
44992;BME280;56865;51.618;7.406;2022-07-23T07:04:10;101122.25;;;27.54;100.00
44992;BME280;56865;51.618;7.406;2022-07-23T07:06:40;101114.94;;;27.86;100.00
44992;BME280;56865;51.618;7.406;2022-07-23T07:09:12;101116.25;;;27.98;100.00
44992;BME280;56865;51.618;7.406;2022-07-23T07:11:42;101120.84;;;27.93;100.00
44992;BME280;56865;51.618;7.406;2022-07-23T07:14:12;101117.63;;;27.84;100.00
44992;BME280;56865;51.618;7.406;2022-07-23T07:16:42;101120.56;;;27.77;100.00
44992;BME280;56865;51.618;7.406;2022-07-23T07:19:12;101116.91;;;27.81;100.00
44992;BME280;56865;51.618;7.406;2022-07-23T07:21:42;101119.41;;;28.08;100.00
44992;BME280;56865;51.618;7.406;2022-07-23T07:24:14;101120.56;;;28.45;100.00
44992;BME280;56865;51.618;7.406;2022-07-23T07:26:44;101129.13;;;28.28;100.00
44992;BME280;56865;51.618;7.406;2022-07-23T07:29:14;101130.38;;;28.17;100.00
44992;BME280;56865;51.618;7.406;2022-07-23T07:31:44;101120.16;;;27.87;100.00
44992;BME280;56865;51.618;7.406;2022-07-23T07:34:14;101123.94;;;28.04;100.00
44992;BME280;56865;51.618;7.406;2022-07-23T07:36:46;101125.56;;;27.34;100.00
44992;BME280;56865;51.618;7.406;2022-07-23T07:39:19;101130.81;;;27.83;100.00
44992;BME280;56865;51.618;7.406;2022-07-23T07:41:49;101130.75;;;27.35;100.00
44992;BME280;56865;51.618;7.406;2022-07-23T07:44:19;101145.91;;;27.51;100.00
44992;BME280;56865;51.618;7.406;2022-07-23T07:46:49;101141.75;;;27.20;100.00
44992;BME280;56865;51.618;7.406;2022-07-23T07:49:19;101133.34;;;27.61;100.00
44992;BME280;56865;51.618;7.406;2022-07-23T07:51:51;101128.50;;;27.97;100.00
44992;BME280;56865;51.618;7.406;2022-07-23T07:54:24;101136.97;;;28.05;100.00
44992;BME280;56865;51.618;7.406;2022-07-23T07:56:54;101137.69;;;27.36;100.00
44992;BME280;56865;51.618;7.406;2022-07-23T07:59:24;101138.22;;;27.71;100.00
44992;BME280;56865;51.618;7.406;2022-07-23T08:02:14;101141.88;;;27.67;100.00
44992;BME280;56865;51.618;7.406;2022-07-23T08:04:47;101144.22;;;27.97;99.31
44992;BME280;56865;51.618;7.406;2022-07-23T08:07:17;101141.22;;;27.84;100.00
44992;BME280;56865;51.618;7.406;2022-07-23T08:09:49;101145.16;;;27.96;100.00
44992;BME280;56865;51.618;7.406;2022-07-23T08:12:19;101151.47;;;27.90;100.00
44992;BME280;56865;51.618;7.406;2022-07-23T08:14:49;101165.19;;;27.50;100.00
44992;BME280;56865;51.618;7.406;2022-07-23T08:17:19;101164.50;;;27.18;100.00
44992;BME280;56865;51.618;7.406;2022-07-23T08:19:49;101166.34;;;27.66;100.00
44992;BME280;56865;51.618;7.406;2022-07-23T08:22:19;101167.50;;;28.07;98.69
44992;BME280;56865;51.618;7.406;2022-07-23T08:24:51;101174.41;;;28.09;94.50
44992;BME280;56865;51.618;7.406;2022-07-23T08:27:21;101174.47;;;28.08;94.02
44992;BME280;56865;51.618;7.406;2022-07-23T08:29:51;101174.47;;;28.30;95.57
44992;BME280;56865;51.618;7.406;2022-07-23T08:32:21;101171.84;;;28.30;97.32
44992;BME280;56865;51.618;7.406;2022-07-23T08:35:10;101179.28;;;28.18;97.76
44992;BME280;56865;51.618;7.406;2022-07-23T08:37:40;101177.91;;;27.84;97.66
44992;BME280;56865;51.618;7.406;2022-07-23T08:40:13;101179.09;;;27.76;97.60
44992;BME280;56865;51.618;7.406;2022-07-23T08:42:45;101180.44;;;27.87;96.01
44992;BME280;56865;51.618;7.406;2022-07-23T08:45:18;101183.59;;;27.96;99.18
44992;BME280;56865;51.618;7.406;2022-07-23T08:47:53;101181.88;;;27.71;90.91
44992;BME280;56865;51.618;7.406;2022-07-23T08:50:24;101186.72;;;27.82;87.02
44992;BME280;56865;51.618;7.406;2022-07-23T08:52:54;101185.31;;;28.20;93.08
44992;BME280;56865;51.618;7.406;2022-07-23T08:55:28;101191.50;;;28.42;93.36
44992;BME280;56865;51.618;7.406;2022-07-23T08:57:58;101191.72;;;28.58;89.95
44992;BME280;56865;51.618;7.406;2022-07-23T09:00:28;101189.50;;;28.48;91.57
44992;BME280;56865;51.618;7.406;2022-07-23T09:02:59;101184.81;;;28.79;89.82
44992;BME280;56865;51.618;7.406;2022-07-23T09:05:29;101184.06;;;28.75;92.11
44992;BME280;56865;51.618;7.406;2022-07-23T09:08:10;101184.06;;;28.75;89.55
44992;BME280;56865;51.618;7.406;2022-07-23T09:10:48;101185.03;;;28.50;88.87
44992;BME280;56865;51.618;7.406;2022-07-23T09:13:33;101192.75;;;28.98;90.23
44992;BME280;56865;51.618;7.406;2022-07-23T09:16:06;101187.28;;;28.60;91.71
44992;BME280;56865;51.618;7.406;2022-07-23T09:18:40;101179.19;;;28.66;88.73
44992;BME280;56865;51.618;7.406;2022-07-23T09:21:22;101185.41;;;28.63;88.88
44992;BME280;56865;51.618;7.406;2022-07-23T09:23:55;101184.81;;;28.57;89.93
44992;BME280;56865;51.618;7.406;2022-07-23T09:26:34;101186.75;;;28.74;90.75
44992;BME280;56865;51.618;7.406;2022-07-23T09:29:07;101185.78;;;28.76;85.92
44992;BME280;56865;51.618;7.406;2022-07-23T09:31:48;101194.88;;;28.90;87.27
44992;BME280;56865;51.618;7.406;2022-07-23T09:34:21;101177.81;;;29.00;85.93
44992;BME280;56865;51.618;7.406;2022-07-23T09:36:53;101196.44;;;29.14;89.06
44992;BME280;56865;51.618;7.406;2022-07-23T09:39:26;101199.47;;;29.05;89.80
44992;BME280;56865;51.618;7.406;2022-07-23T09:42:13;101196.34;;;29.17;86.67
44992;BME280;56865;51.618;7.406;2022-07-23T09:44:44;101193.38;;;29.05;86.21
44992;BME280;56865;51.618;7.406;2022-07-23T09:47:15;101192.25;;;29.10;85.60
44992;BME280;56865;51.618;7.406;2022-07-23T09:49:58;101198.75;;;29.01;83.71
44992;BME280;56865;51.618;7.406;2022-07-23T09:52:29;101198.00;;;29.41;84.44
44992;BME280;56865;51.618;7.406;2022-07-23T09:55:04;101199.63;;;29.23;85.57
44992;BME280;56865;51.618;7.406;2022-07-23T09:57:37;101202.38;;;29.61;85.77
44992;BME280;56865;51.618;7.406;2022-07-23T10:00:12;101205.41;;;29.51;81.17
44992;BME280;56865;51.618;7.406;2022-07-23T10:02:45;101195.31;;;29.42;81.62
44992;BME280;56865;51.618;7.406;2022-07-23T10:05:16;101189.69;;;29.31;83.75
44992;BME280;56865;51.618;7.406;2022-07-23T10:07:48;101195.28;;;29.01;85.43
44992;BME280;56865;51.618;7.406;2022-07-23T10:10:21;101186.41;;;29.24;79.42
44992;BME280;56865;51.618;7.406;2022-07-23T10:12:55;101188.19;;;29.24;79.93
44992;BME280;56865;51.618;7.406;2022-07-23T10:15:47;101193.19;;;29.50;82.49
44992;BME280;56865;51.618;7.406;2022-07-23T10:18:17;101188.38;;;29.19;78.70
44992;BME280;56865;51.618;7.406;2022-07-23T10:20:48;101185.66;;;29.22;78.87
44992;BME280;56865;51.618;7.406;2022-07-23T10:23:22;101189.13;;;29.23;79.91
44992;BME280;56865;51.618;7.406;2022-07-23T10:25:59;101186.00;;;29.35;79.51
44992;BME280;56865;51.618;7.406;2022-07-23T10:29:00;101175.19;;;29.62;82.67
44992;BME280;56865;51.618;7.406;2022-07-23T10:31:41;101185.59;;;29.84;80.83
44992;BME280;56865;51.618;7.406;2022-07-23T10:34:36;101185.56;;;29.65;78.25
44992;BME280;56865;51.618;7.406;2022-07-23T10:37:14;101187.50;;;29.80;82.49
44992;BME280;56865;51.618;7.406;2022-07-23T10:40:08;101181.94;;;29.67;78.67
44992;BME280;56865;51.618;7.406;2022-07-23T10:42:39;101179.97;;;29.73;77.56
44992;BME280;56865;51.618;7.406;2022-07-23T10:45:30;101187.75;;;29.95;74.13
44992;BME280;56865;51.618;7.406;2022-07-23T10:48:14;101189.06;;;29.84;79.75
44992;BME280;56865;51.618;7.406;2022-07-23T10:51:06;101193.94;;;29.94;76.43
44992;BME280;56865;51.618;7.406;2022-07-23T10:53:54;101190.13;;;29.80;76.37
44992;BME280;56865;51.618;7.406;2022-07-23T10:56:50;101184.91;;;29.99;77.72
44992;BME280;56865;51.618;7.406;2022-07-23T10:59:20;101182.16;;;30.03;78.45
44992;BME280;56865;51.618;7.406;2022-07-23T11:01:53;101188.75;;;30.11;78.67
44992;BME280;56865;51.618;7.406;2022-07-23T11:04:50;101188.75;;;30.11;78.29
44992;BME280;56865;51.618;7.406;2022-07-23T11:07:20;101186.75;;;30.17;76.47
44992;BME280;56865;51.618;7.406;2022-07-23T11:09:50;101181.16;;;30.05;75.98
44992;BME280;56865;51.618;7.406;2022-07-23T11:12:33;101173.66;;;30.34;78.12
44992;BME280;56865;51.618;7.406;2022-07-23T11:15:07;101182.56;;;30.31;75.62
44992;BME280;56865;51.618;7.406;2022-07-23T11:18:00;101185.47;;;30.06;74.51
44992;BME280;56865;51.618;7.406;2022-07-23T11:20:30;101179.59;;;30.20;72.45
44992;BME280;56865;51.618;7.406;2022-07-23T11:23:00;101180.22;;;30.06;75.94
44992;BME280;56865;51.618;7.406;2022-07-23T11:25:35;101173.50;;;30.37;75.78
44992;BME280;56865;51.618;7.406;2022-07-23T11:28:10;101182.31;;;30.36;74.60
44992;BME280;56865;51.618;7.406;2022-07-23T11:30:42;101177.38;;;30.49;73.09
44992;BME280;56865;51.618;7.406;2022-07-23T11:33:20;101178.63;;;30.59;78.82
44992;BME280;56865;51.618;7.406;2022-07-23T11:36:00;101178.84;;;30.55;73.76
44992;BME280;56865;51.618;7.406;2022-07-23T11:38:32;101175.00;;;30.79;79.03
44992;BME280;56865;51.618;7.406;2022-07-23T11:41:02;101172.44;;;30.95;73.03
44992;BME280;56865;51.618;7.406;2022-07-23T11:43:32;101176.47;;;31.03;74.57
44992;BME280;56865;51.618;7.406;2022-07-23T11:46:09;101176.19;;;31.09;72.12
44992;BME280;56865;51.618;7.406;2022-07-23T11:48:42;101167.44;;;30.91;76.78
44992;BME280;56865;51.618;7.406;2022-07-23T11:51:24;101173.84;;;31.20;77.02
44992;BME280;56865;51.618;7.406;2022-07-23T11:54:05;101168.13;;;31.30;74.25
44992;BME280;56865;51.618;7.406;2022-07-23T11:56:36;101172.44;;;31.31;73.04
44992;BME280;56865;51.618;7.406;2022-07-23T11:59:07;101179.94;;;31.38;69.36
44992;BME280;56865;51.618;7.406;2022-07-23T12:01:38;101177.91;;;31.61;70.76
44992;BME280;56865;51.618;7.406;2022-07-23T12:04:37;101182.63;;;31.54;70.29
44992;BME280;56865;51.618;7.406;2022-07-23T12:07:25;101174.38;;;31.27;65.48
44992;BME280;56865;51.618;7.406;2022-07-23T12:09:57;101171.38;;;31.68;72.37
44992;BME280;56865;51.618;7.406;2022-07-23T12:12:27;101176.09;;;31.79;69.54
44992;BME280;56865;51.618;7.406;2022-07-23T12:15:06;101172.31;;;31.67;68.25
44992;BME280;56865;51.618;7.406;2022-07-23T12:17:38;101172.09;;;31.88;69.30
44992;BME280;56865;51.618;7.406;2022-07-23T12:20:21;101175.75;;;32.17;71.84
44992;BME280;56865;51.618;7.406;2022-07-23T12:22:57;101175.63;;;32.20;68.64
44992;BME280;56865;51.618;7.406;2022-07-23T12:25:29;101168.56;;;32.21;65.55
44992;BME280;56865;51.618;7.406;2022-07-23T12:28:02;101164.75;;;32.57;67.25
44992;BME280;56865;51.618;7.406;2022-07-23T12:30:34;101166.06;;;32.34;66.33
44992;BME280;56865;51.618;7.406;2022-07-23T12:33:05;101172.59;;;32.42;65.25
44992;BME280;56865;51.618;7.406;2022-07-23T12:35:39;101166.84;;;32.36;64.35
44992;BME280;56865;51.618;7.406;2022-07-23T12:38:11;101174.41;;;32.58;68.47
44992;BME280;56865;51.618;7.406;2022-07-23T12:40:44;101177.25;;;32.23;63.79
44992;BME280;56865;51.618;7.406;2022-07-23T12:43:20;101171.97;;;32.69;67.70
44992;BME280;56865;51.618;7.406;2022-07-23T12:45:51;101171.16;;;32.53;63.27
44992;BME280;56865;51.618;7.406;2022-07-23T12:48:24;101169.63;;;32.49;61.77
44992;BME280;56865;51.618;7.406;2022-07-23T12:50:59;101170.75;;;32.91;67.23
44992;BME280;56865;51.618;7.406;2022-07-23T12:53:30;101174.41;;;32.42;57.78
44992;BME280;56865;51.618;7.406;2022-07-23T12:56:04;101170.69;;;32.77;61.91
44992;BME280;56865;51.618;7.406;2022-07-23T12:58:42;101163.72;;;32.76;59.10
44992;BME280;56865;51.618;7.406;2022-07-23T13:01:25;101169.56;;;32.34;55.26
44992;BME280;56865;51.618;7.406;2022-07-23T13:03:58;101172.66;;;32.73;55.06
44992;BME280;56865;51.618;7.406;2022-07-23T13:06:41;101179.72;;;33.48;59.17
44992;BME280;56865;51.618;7.406;2022-07-23T13:09:15;101180.56;;;33.63;56.86
44992;BME280;56865;51.618;7.406;2022-07-23T13:11:46;101176.81;;;33.81;58.95